createdAt,value
2023-05-08T04:14:27.559Z,18.77
2023-05-08T04:17:03.771Z,18.99
2023-05-08T04:19:38.196Z,18.91
2023-05-08T04:22:08.534Z,19.22
2023-05-08T04:24:49.198Z,18.89
2023-05-08T04:27:18.020Z,18.88
2023-05-08T04:29:45.652Z,18.84
2023-05-08T04:32:14.015Z,18.83
2023-05-08T04:34:41.606Z,18.73
2023-05-08T04:37:09.341Z,18.73
2023-05-08T04:39:36.943Z,18.79
2023-05-08T04:42:04.856Z,18.96
2023-05-08T04:44:34.423Z,19.12
2023-05-08T04:47:01.941Z,18.96
2023-05-08T04:49:29.391Z,19.38
2023-05-08T04:51:56.719Z,19.35
2023-05-08T04:54:24.009Z,19.53
2023-05-08T04:56:51.340Z,19.46
2023-05-08T04:59:19.872Z,19.42
2023-05-08T05:01:47.795Z,19.38
2023-05-08T05:04:15.141Z,19.45
2023-05-08T05:06:42.773Z,19.30
2023-05-08T05:09:11.683Z,19.36
2023-05-08T05:11:39.289Z,18.94
2023-05-08T05:14:07.472Z,19.19
2023-05-08T05:16:35.699Z,19.33
2023-05-08T05:19:03.515Z,19.22
2023-05-08T05:21:32.836Z,19.16
2023-05-08T05:24:00.331Z,19.07
2023-05-08T05:26:28.088Z,19.06
2023-05-08T05:28:55.633Z,19.31
2023-05-08T05:31:23.755Z,19.33
2023-05-08T05:33:51.767Z,19.31
2023-05-08T05:36:20.675Z,19.64
2023-05-08T05:38:48.272Z,19.67
2023-05-08T05:41:16.374Z,19.58
2023-05-08T05:43:43.662Z,19.58
2023-05-08T05:46:11.416Z,19.84
2023-05-08T05:48:40.608Z,19.82
2023-05-08T05:51:09.772Z,19.78
2023-05-08T05:53:37.613Z,19.69
2023-05-08T05:56:06.043Z,19.79
2023-05-08T05:58:35.486Z,19.77
2023-05-08T06:01:03.633Z,19.67
2023-05-08T06:03:32.500Z,19.77
2023-05-08T06:06:00.219Z,20.01
2023-05-08T06:08:27.849Z,19.82
2023-05-08T06:10:57.124Z,19.90
2023-05-08T06:13:24.693Z,19.81
2023-05-08T06:15:56.488Z,19.93
2023-05-08T06:18:24.866Z,19.77
2023-05-08T06:20:58.883Z,19.85
2023-05-08T06:23:27.074Z,20.08
2023-05-08T06:25:54.563Z,20.08
2023-05-08T06:28:23.988Z,19.86
2023-05-08T06:30:52.110Z,19.95
2023-05-08T06:33:20.047Z,19.81
2023-05-08T06:35:48.257Z,19.80
2023-05-08T06:38:16.606Z,19.71
2023-05-08T06:40:44.557Z,19.61
2023-05-08T06:43:13.174Z,19.56
2023-05-08T06:45:41.022Z,19.95
2023-05-08T06:48:08.909Z,19.90
2023-05-08T06:50:40.798Z,19.85
2023-05-08T06:53:08.551Z,20.02
2023-05-08T06:55:35.864Z,19.93
2023-05-08T06:58:04.038Z,20.13
2023-05-08T07:00:31.613Z,20.20
2023-05-08T07:02:59.909Z,20.11
2023-05-08T07:05:27.321Z,20.05
2023-05-08T07:07:55.124Z,20.17
2023-05-08T07:10:23.008Z,20.39
2023-05-08T07:12:50.739Z,20.23
2023-05-08T07:17:51.924Z,20.40
2023-05-08T07:20:20.348Z,20.52
2023-05-08T07:22:47.720Z,20.71
2023-05-08T07:25:16.070Z,20.66
2023-05-08T07:27:43.584Z,20.71
2023-05-08T07:30:11.624Z,20.91
2023-05-08T07:32:39.371Z,21.00
2023-05-08T07:35:11.084Z,21.04
2023-05-08T07:37:41.791Z,20.96
2023-05-08T07:40:09.388Z,21.02
2023-05-08T07:42:43.427Z,21.02
2023-05-08T07:45:13.028Z,21.15
2023-05-08T07:47:56.316Z,21.06
2023-05-08T07:50:25.065Z,21.26
2023-05-08T07:52:53.054Z,21.21
2023-05-08T07:55:21.764Z,21.07
2023-05-08T07:57:49.247Z,20.87
2023-05-08T08:00:17.299Z,20.84
2023-05-08T08:02:45.473Z,21.08
2023-05-08T08:05:13.976Z,20.94
2023-05-08T08:07:41.926Z,21.05
2023-05-08T08:10:09.337Z,21.51
2023-05-08T08:12:36.791Z,21.13
2023-05-08T08:15:05.163Z,21.24
2023-05-08T08:17:33.073Z,21.40
2023-05-08T08:20:00.955Z,21.50
2023-05-08T08:22:28.466Z,21.71
2023-05-08T08:24:56.460Z,21.89
2023-05-08T08:27:24.773Z,22.09
2023-05-08T08:29:58.586Z,21.93
2023-05-08T08:32:32.297Z,21.89
2023-05-08T08:34:59.980Z,22.31
2023-05-08T08:37:27.345Z,22.28
2023-05-08T08:39:55.103Z,22.32
2023-05-08T08:42:23.549Z,22.42
2023-05-08T08:44:51.245Z,22.39
2023-05-08T08:47:21.943Z,22.36
2023-05-08T08:49:51.188Z,22.49
2023-05-08T08:52:39.130Z,22.61
2023-05-08T08:55:10.539Z,22.84
2023-05-08T08:58:06.086Z,22.79
2023-05-08T09:00:37.230Z,22.88
2023-05-08T09:03:09.324Z,22.99
2023-05-08T09:05:37.580Z,22.64
2023-05-08T09:08:07.131Z,22.36
2023-05-08T09:10:34.958Z,22.70
2023-05-08T09:13:04.568Z,22.87
2023-05-08T09:15:33.293Z,23.07
2023-05-08T09:18:02.600Z,23.27
2023-05-08T09:20:30.513Z,23.11
2023-05-08T09:23:02.301Z,22.78
2023-05-08T09:25:47.218Z,22.98
2023-05-08T09:28:26.219Z,23.13
2023-05-08T09:30:58.289Z,23.16
2023-05-08T09:33:28.011Z,23.15
2023-05-08T09:35:57.393Z,23.49
2023-05-08T09:38:41.930Z,23.89
2023-05-08T09:41:15.489Z,24.18
2023-05-08T09:43:44.809Z,23.84
2023-05-08T09:46:26.252Z,23.99
2023-05-08T09:48:57.051Z,24.21
2023-05-08T09:51:26.561Z,24.31
2023-05-08T09:53:55.935Z,24.20
2023-05-08T09:56:34.146Z,24.35
2023-05-08T09:59:04.364Z,24.16
2023-05-08T10:01:35.614Z,24.04
2023-05-08T10:04:05.697Z,24.17
2023-05-08T10:06:33.839Z,23.89
2023-05-08T10:09:08.182Z,23.93
2023-05-08T10:11:36.370Z,23.90
2023-05-08T10:14:03.822Z,24.01
2023-05-08T10:16:36.674Z,23.73
2023-05-08T10:19:09.304Z,23.55
2023-05-08T10:21:38.121Z,23.36
2023-05-08T10:24:12.923Z,23.14
2023-05-08T10:26:57.167Z,23.25
2023-05-08T10:29:38.563Z,23.47
2023-05-08T10:32:12.184Z,23.71
2023-05-08T10:34:42.318Z,23.89
2023-05-08T10:37:11.446Z,23.92
2023-05-08T10:39:41.138Z,23.85
2023-05-08T10:42:09.079Z,24.25
2023-05-08T10:44:36.867Z,24.38
2023-05-08T10:47:21.759Z,24.34
2023-05-08T10:49:59.192Z,24.14
2023-05-08T10:52:36.079Z,23.85
2023-05-08T10:55:19.790Z,23.90
2023-05-08T10:58:06.907Z,24.02
2023-05-08T11:00:59.837Z,23.82
2023-05-08T11:03:33.068Z,24.01
2023-05-08T11:06:02.253Z,24.07
2023-05-08T11:08:31.658Z,24.65
2023-05-08T11:10:59.498Z,24.62
2023-05-08T11:13:35.373Z,24.46
2023-05-08T11:16:04.090Z,24.58
2023-05-08T11:18:45.866Z,24.91
2023-05-08T11:21:22.395Z,24.99
2023-05-08T11:23:58.834Z,24.92
2023-05-08T11:26:42.784Z,24.84
2023-05-08T11:29:17.902Z,24.27
2023-05-08T11:31:52.760Z,24.67
2023-05-08T11:34:41.958Z,24.93
2023-05-08T11:37:18.685Z,25.00
2023-05-08T11:39:47.098Z,25.60
2023-05-08T11:42:29.540Z,25.37
2023-05-08T11:45:07.746Z,25.73
2023-05-08T11:47:41.387Z,26.08
2023-05-08T11:50:10.578Z,26.24
2023-05-08T11:52:40.391Z,26.63
2023-05-08T11:55:15.899Z,26.41
2023-05-08T11:57:44.116Z,26.39
2023-05-08T12:00:12.795Z,26.68
2023-05-08T12:02:42.436Z,26.67
2023-05-08T12:05:11.238Z,26.16
2023-05-08T12:07:44.619Z,26.50
2023-05-08T12:10:16.638Z,26.49
2023-05-08T12:12:45.362Z,26.61
2023-05-08T12:15:15.063Z,26.48
2023-05-08T12:17:43.779Z,26.95
2023-05-08T12:20:19.085Z,26.83
2023-05-08T12:22:53.011Z,26.62
2023-05-08T12:25:20.967Z,26.96
2023-05-08T12:27:48.593Z,26.40
2023-05-08T12:30:16.798Z,27.50
2023-05-08T12:32:45.425Z,27.30
2023-05-08T12:35:14.850Z,27.44
2023-05-08T12:37:42.314Z,27.17
2023-05-08T12:40:25.432Z,27.58
2023-05-08T12:42:53.228Z,27.50
2023-05-08T12:45:29.737Z,27.79
2023-05-08T12:48:01.492Z,28.10
2023-05-08T12:50:33.613Z,28.25
2023-05-08T12:53:05.903Z,28.51
2023-05-08T12:55:36.346Z,29.16
2023-05-08T12:58:09.125Z,29.70
2023-05-08T13:00:42.236Z,28.78
2023-05-08T13:03:11.738Z,28.72
2023-05-08T13:05:44.376Z,27.58
2023-05-08T13:08:11.954Z,27.53
2023-05-08T13:10:55.127Z,27.28
2023-05-08T13:13:25.879Z,26.80
2023-05-08T13:15:55.742Z,27.01
2023-05-08T13:18:28.656Z,26.93
2023-05-08T13:20:56.770Z,26.73
2023-05-08T13:23:24.308Z,27.07
2023-05-08T13:25:52.586Z,26.70
2023-05-08T13:28:20.368Z,26.79
2023-05-08T13:30:47.648Z,27.34
2023-05-08T13:33:15.860Z,27.61
2023-05-08T13:35:43.319Z,27.95
2023-05-08T13:38:10.912Z,28.25
2023-05-08T13:40:38.287Z,28.05
2023-05-08T13:43:05.721Z,28.61
2023-05-08T13:45:33.221Z,28.48
2023-05-08T13:48:01.427Z,28.82
2023-05-08T13:50:29.148Z,29.13
2023-05-08T13:52:56.814Z,29.09
2023-05-08T13:55:24.311Z,28.94
2023-05-08T13:57:52.683Z,29.25
2023-05-08T14:00:20.891Z,29.65
2023-05-08T14:02:50.682Z,30.06
2023-05-08T14:05:18.318Z,29.55
2023-05-08T14:07:45.685Z,29.04
2023-05-08T14:10:13.759Z,29.13
2023-05-08T14:12:41.231Z,29.38
2023-05-08T14:15:09.800Z,29.44
2023-05-08T14:17:37.232Z,29.77
2023-05-08T14:20:05.176Z,29.37
2023-05-08T14:22:34.041Z,29.45
2023-05-08T14:25:01.958Z,29.78
2023-05-08T14:27:30.048Z,30.06
2023-05-08T14:29:58.033Z,29.91
2023-05-08T14:32:25.628Z,30.21
2023-05-08T14:34:52.950Z,30.85
2023-05-08T14:37:20.462Z,30.35
2023-05-08T14:39:48.015Z,30.21
2023-05-08T14:42:22.195Z,31.87
2023-05-08T14:44:51.699Z,36.34
2023-05-08T14:47:19.531Z,39.50
2023-05-08T14:49:46.844Z,34.95
2023-05-08T14:52:14.548Z,34.53
2023-05-08T14:54:42.064Z,37.06
2023-05-08T14:57:10.001Z,39.70
2023-05-08T14:59:41.693Z,40.55
2023-05-08T15:02:17.960Z,42.85
2023-05-08T15:04:46.087Z,44.02
2023-05-08T15:07:13.870Z,43.67
2023-05-08T15:09:41.327Z,44.14
2023-05-08T15:12:09.203Z,44.89
2023-05-08T15:14:37.048Z,44.92
2023-05-08T15:17:04.800Z,45.92
2023-05-08T15:19:32.497Z,44.88
2023-05-08T15:21:59.998Z,43.05
2023-05-08T15:24:28.154Z,41.66
2023-05-08T15:26:55.987Z,43.13
2023-05-08T15:29:23.427Z,43.57
2023-05-08T15:31:51.372Z,42.86
2023-05-08T15:34:18.788Z,42.88
2023-05-08T15:36:46.565Z,43.73
2023-05-08T15:39:14.100Z,46.08
2023-05-08T15:41:42.011Z,44.78
2023-05-08T15:44:09.840Z,44.67
2023-05-08T15:46:37.754Z,44.24
2023-05-08T15:49:06.021Z,44.08
2023-05-08T15:51:33.384Z,44.91
2023-05-08T15:54:01.378Z,43.26
2023-05-08T15:56:29.054Z,43.97
2023-05-08T15:58:56.840Z,41.91
2023-05-08T16:01:24.265Z,40.40
2023-05-08T16:03:51.692Z,44.13
2023-05-08T16:06:19.608Z,43.24
2023-05-08T16:08:47.045Z,41.99
2023-05-08T16:11:15.087Z,42.26
2023-05-08T16:13:43.183Z,42.62
2023-05-08T16:16:10.517Z,43.10
2023-05-08T16:18:37.931Z,43.47
2023-05-08T16:21:09.735Z,42.52
2023-05-08T16:23:37.718Z,42.21
2023-05-08T16:26:05.332Z,42.08
2023-05-08T16:28:33.489Z,41.34
2023-05-08T16:31:02.009Z,41.74
2023-05-08T16:33:30.467Z,40.42
2023-05-08T16:35:58.287Z,40.69
2023-05-08T16:38:25.629Z,40.48
2023-05-08T16:40:52.903Z,41.20
2023-05-08T16:43:20.315Z,40.49
2023-05-08T16:45:51.544Z,35.62
2023-05-08T16:48:18.952Z,32.77
2023-05-08T16:50:46.844Z,32.35
2023-05-08T16:53:15.519Z,35.51
2023-05-08T16:55:43.053Z,35.65
2023-05-08T16:58:11.232Z,36.44
2023-05-08T17:00:38.981Z,37.27
2023-05-08T17:03:06.763Z,37.11
2023-05-08T17:05:35.606Z,37.76
2023-05-08T17:08:02.950Z,36.56
2023-05-08T17:10:30.964Z,35.52
2023-05-08T17:12:58.712Z,35.67
2023-05-08T17:15:27.305Z,34.30
2023-05-08T17:17:55.925Z,30.04
2023-05-08T17:20:23.425Z,27.73
2023-05-08T17:22:53.108Z,27.45
2023-05-08T17:25:22.440Z,26.53
2023-05-08T17:27:49.872Z,26.27
2023-05-08T17:30:17.667Z,26.07
2023-05-08T17:32:46.268Z,26.20
2023-05-08T17:35:13.562Z,25.22
2023-05-08T17:37:41.748Z,25.20
2023-05-08T17:40:10.021Z,24.87
2023-05-08T17:42:37.378Z,24.57
2023-05-08T17:45:05.745Z,24.49
2023-05-08T17:47:33.405Z,24.41
2023-05-08T17:50:00.764Z,24.48
2023-05-08T17:52:28.032Z,23.92
2023-05-08T17:54:55.446Z,24.31
2023-05-08T17:57:23.631Z,24.10
2023-05-08T17:59:51.243Z,23.97
2023-05-08T18:02:19.590Z,24.11
2023-05-08T18:04:47.322Z,24.26
2023-05-08T18:07:14.615Z,23.82
2023-05-08T18:09:41.919Z,23.80
2023-05-08T18:12:09.192Z,23.71
2023-05-08T18:14:37.007Z,23.96
2023-05-08T18:17:05.858Z,23.33
2023-05-08T18:19:33.569Z,22.87
2023-05-08T18:22:01.395Z,22.93
2023-05-08T18:24:29.792Z,22.99
2023-05-08T18:26:57.568Z,22.74
2023-05-08T18:29:25.662Z,22.74
2023-05-08T18:31:53.091Z,22.91
2023-05-08T18:34:20.654Z,22.97
2023-05-08T18:36:50.412Z,22.88
2023-05-08T18:39:17.784Z,22.92
2023-05-08T18:41:45.548Z,22.58
2023-05-08T18:44:13.625Z,22.64
2023-05-08T18:46:41.359Z,22.47
2023-05-08T18:49:09.430Z,22.60
2023-05-08T18:51:37.004Z,22.61
2023-05-08T18:54:04.402Z,22.67
2023-05-08T18:56:34.275Z,22.47
2023-05-08T18:59:01.745Z,22.50
2023-05-08T19:01:29.320Z,22.69
2023-05-08T19:03:56.796Z,22.53
2023-05-08T19:06:24.714Z,22.60
2023-05-08T19:08:52.489Z,22.32
2023-05-08T19:11:20.035Z,22.33
2023-05-08T19:13:49.937Z,22.24
2023-05-08T19:16:18.070Z,22.27
2023-05-08T19:18:45.862Z,22.24
2023-05-08T19:21:13.284Z,22.25
2023-05-08T19:23:40.734Z,22.37
2023-05-08T19:26:09.093Z,22.13
2023-05-08T19:28:36.893Z,21.93
2023-05-08T19:31:05.206Z,21.88
2023-05-08T19:33:32.594Z,21.76
2023-05-08T19:36:00.453Z,21.96
2023-05-08T19:38:28.584Z,21.87
2023-05-08T19:40:57.661Z,21.93
2023-05-08T19:43:26.409Z,21.85
2023-05-08T19:45:56.016Z,21.79
2023-05-08T19:48:23.747Z,22.12
2023-05-08T19:50:54.593Z,21.83
2023-05-08T19:53:23.396Z,22.01
2023-05-08T19:55:51.505Z,21.73
2023-05-08T19:58:19.590Z,21.71
2023-05-08T20:03:18.625Z,21.73
2023-05-08T20:05:45.967Z,21.71
2023-05-08T20:08:14.413Z,21.81
2023-05-08T20:10:42.346Z,21.84
2023-05-08T20:13:10.321Z,21.57
2023-05-08T20:15:37.692Z,21.35
2023-05-08T20:18:05.735Z,21.41
2023-05-08T20:20:34.787Z,21.46
2023-05-08T20:23:03.004Z,21.59
2023-05-08T20:25:30.844Z,21.26
2023-05-08T20:27:59.243Z,21.44
2023-05-08T20:30:27.133Z,21.27
2023-05-08T20:32:55.692Z,21.04
2023-05-08T20:35:23.480Z,21.13
2023-05-08T20:37:51.543Z,21.22
2023-05-08T20:40:19.831Z,21.17
2023-05-08T20:42:47.127Z,21.29
2023-05-08T20:45:15.595Z,21.21
2023-05-08T20:47:44.502Z,21.10
2023-05-08T20:50:12.771Z,20.96
2023-05-08T20:52:42.581Z,20.79
2023-05-08T20:57:37.829Z,20.68
2023-05-08T21:00:06.248Z,20.68
2023-05-08T21:05:02.135Z,20.76
2023-05-08T21:07:29.480Z,20.93
2023-05-08T21:09:57.063Z,20.85
2023-05-08T21:12:26.658Z,20.38
2023-05-08T21:14:53.911Z,20.30
2023-05-08T21:17:21.303Z,20.31
2023-05-08T21:19:49.687Z,20.41
2023-05-08T21:22:20.133Z,20.54
2023-05-08T21:24:47.357Z,20.74
2023-05-08T21:27:15.303Z,20.64
2023-05-08T21:29:46.839Z,20.54
2023-05-08T21:32:15.444Z,20.03
2023-05-08T21:34:43.340Z,20.21
2023-05-08T21:37:11.126Z,20.24
2023-05-08T21:39:41.930Z,20.04
2023-05-08T21:42:12.556Z,19.89
2023-05-08T21:44:40.164Z,19.98
2023-05-08T21:47:07.905Z,20.00
2023-05-08T21:49:35.364Z,20.20
2023-05-08T21:52:03.357Z,20.27
2023-05-08T21:54:30.764Z,19.88
2023-05-08T21:56:58.888Z,20.00
2023-05-08T21:59:26.218Z,20.10
2023-05-08T22:01:53.545Z,20.04
2023-05-08T22:04:20.952Z,19.98
2023-05-08T22:06:48.235Z,20.05
2023-05-08T22:09:16.062Z,19.95
2023-05-08T22:11:43.320Z,19.65
2023-05-08T22:14:10.612Z,19.76
2023-05-08T22:16:38.221Z,19.95
2023-05-08T22:19:05.894Z,20.02
2023-05-08T22:21:33.380Z,20.07
2023-05-08T22:24:03.695Z,20.09
2023-05-08T22:26:31.234Z,20.13
2023-05-08T22:28:59.574Z,19.88
2023-05-08T22:31:27.034Z,19.80
2023-05-08T22:33:54.586Z,19.85
2023-05-08T22:36:23.866Z,19.87
2023-05-08T22:38:52.226Z,20.02
2023-05-08T22:41:19.492Z,20.21
2023-05-08T22:43:47.142Z,20.02
2023-05-08T22:46:14.640Z,20.09
2023-05-08T22:48:42.107Z,20.01
2023-05-08T22:51:10.311Z,20.03
2023-05-08T22:53:37.653Z,19.96
2023-05-08T22:56:05.537Z,19.94
2023-05-08T22:58:32.922Z,20.06
2023-05-08T23:01:00.792Z,20.06
2023-05-08T23:03:28.550Z,19.89
2023-05-08T23:05:55.914Z,19.68
2023-05-08T23:08:23.861Z,19.71
2023-05-08T23:10:51.565Z,19.71
2023-05-08T23:13:18.998Z,19.49
2023-05-08T23:15:47.149Z,19.74
2023-05-08T23:18:14.481Z,19.69
2023-05-08T23:20:41.869Z,19.66
2023-05-08T23:23:09.540Z,19.48
2023-05-08T23:25:36.784Z,19.69
2023-05-08T23:28:04.227Z,19.74
2023-05-08T23:30:32.436Z,19.76
2023-05-08T23:33:00.636Z,19.66
2023-05-08T23:35:28.318Z,19.63
2023-05-08T23:37:55.958Z,19.50
2023-05-08T23:40:23.416Z,19.44
2023-05-08T23:42:52.016Z,19.51
2023-05-08T23:45:19.311Z,19.26
2023-05-08T23:47:46.796Z,19.38
2023-05-08T23:50:14.116Z,19.42
2023-05-08T23:52:41.720Z,19.60
2023-05-08T23:55:10.017Z,19.48
2023-05-08T23:57:37.834Z,19.57
